createdAt,value
2018-11-07T00:00:08.924Z,71.53
2018-11-07T00:05:11.145Z,73.30
2018-11-07T00:10:13.365Z,72.27
2018-11-07T00:15:15.923Z,66.37
2018-11-07T00:20:18.099Z,72.17
2018-11-07T00:25:20.250Z,75.80
2018-11-07T00:30:22.411Z,63.70
2018-11-07T00:35:24.458Z,69.50
2018-11-07T00:40:26.564Z,66.00
2018-11-07T00:45:28.682Z,74.30
2018-11-07T00:50:30.785Z,67.33
2018-11-07T00:55:32.906Z,94.43
2018-11-07T01:00:35.050Z,95.37
2018-11-07T01:05:37.175Z,99.10
2018-11-07T01:10:39.555Z,76.83
2018-11-07T01:15:41.696Z,68.47
2018-11-07T01:20:43.853Z,72.43
2018-11-07T01:25:46.047Z,67.17
2018-11-07T01:30:48.167Z,73.13
2018-11-07T01:35:50.300Z,60.53
2018-11-07T01:40:52.442Z,58.40
2018-11-07T01:45:54.538Z,58.03
2018-11-07T01:50:56.654Z,75.70
2018-11-07T01:55:58.768Z,64.63
2018-11-07T02:01:00.921Z,68.47
2018-11-07T02:06:03.403Z,59.87
2018-11-07T02:11:05.551Z,62.63
2018-11-07T02:16:07.716Z,66.97
2018-11-07T02:21:09.892Z,67.00
2018-11-07T02:26:12.150Z,69.10
2018-11-07T02:31:14.252Z,72.67
2018-11-07T02:36:16.350Z,62.60
2018-11-07T02:41:18.539Z,69.73
2018-11-07T02:46:20.676Z,76.00
2018-11-07T02:51:22.807Z,66.07
2018-11-07T02:56:24.935Z,73.43
2018-11-07T03:01:27.970Z,72.43
2018-11-07T03:06:30.124Z,65.67
2018-11-07T03:11:32.251Z,60.67
2018-11-07T03:16:34.381Z,64.20
2018-11-07T03:21:36.494Z,67.53
2018-11-07T03:26:38.599Z,67.67
2018-11-07T03:31:40.691Z,63.50
2018-11-07T03:36:42.820Z,63.47
2018-11-07T03:41:44.941Z,71.23
2018-11-07T03:46:47.066Z,64.83
2018-11-07T03:51:49.154Z,65.30
2018-11-07T03:56:51.271Z,63.27
2018-11-07T04:01:53.362Z,62.87
2018-11-07T04:06:55.496Z,57.03
2018-11-07T04:11:57.601Z,70.70
2018-11-07T04:16:59.731Z,64.80
2018-11-07T04:22:01.822Z,67.60
2018-11-07T04:27:03.995Z,66.03
2018-11-07T04:32:06.109Z,70.80
2018-11-07T04:37:08.238Z,70.33
2018-11-07T04:42:10.352Z,76.03
2018-11-07T04:47:12.451Z,77.90
2018-11-07T04:52:14.564Z,103.30
2018-11-07T04:57:16.691Z,104.47
2018-11-07T05:02:18.986Z,109.50
2018-11-07T05:07:21.075Z,110.80
2018-11-07T05:12:23.192Z,107.57
2018-11-07T05:17:25.355Z,116.90
2018-11-07T05:22:27.485Z,114.97
2018-11-07T05:27:29.639Z,102.93
2018-11-07T05:32:31.735Z,116.90
2018-11-07T05:37:33.876Z,121.37
2018-11-07T05:42:36.009Z,118.63
2018-11-07T05:47:38.354Z,108.03
2018-11-07T05:52:41.015Z,136.13
2018-11-07T05:57:43.122Z,156.13
2018-11-07T06:02:45.238Z,117.83
2018-11-07T06:07:47.363Z,138.90
2018-11-07T06:12:49.527Z,147.30
2018-11-07T06:17:58.465Z,121.90
2018-11-07T06:23:00.674Z,145.63
2018-11-07T06:28:02.791Z,122.73
2018-11-07T06:33:05.118Z,121.40
2018-11-07T06:38:07.254Z,109.70
2018-11-07T06:43:09.387Z,104.90
2018-11-07T06:48:11.487Z,129.53
2018-11-07T06:53:13.608Z,179.20
2018-11-07T06:58:15.703Z,118.50
2018-11-07T07:03:17.803Z,143.17
2018-11-07T07:08:19.972Z,132.60
2018-11-07T07:13:22.103Z,110.13
2018-11-07T07:18:24.229Z,115.70
2018-11-07T07:23:26.334Z,238.53
2018-11-07T07:28:28.482Z,102.93
2018-11-07T07:33:30.631Z,122.27
2018-11-07T07:38:32.706Z,98.57
2018-11-07T07:43:34.825Z,96.20
2018-11-07T07:48:36.950Z,140.23
2018-11-07T07:53:39.053Z,206.03
2018-11-07T07:58:41.147Z,98.37
2018-11-07T08:03:43.270Z,129.50
2018-11-07T08:08:45.411Z,121.43
2018-11-07T08:13:47.547Z,100.77
2018-11-07T08:18:49.653Z,142.80
2018-11-07T08:23:51.756Z,102.07
2018-11-07T08:28:53.982Z,108.63
2018-11-07T08:33:56.340Z,103.70
2018-11-07T08:38:58.470Z,128.53
2018-11-07T08:44:00.616Z,135.33
2018-11-07T08:49:02.744Z,108.50
2018-11-07T08:54:04.883Z,110.17
2018-11-07T08:59:07.004Z,116.67
2018-11-07T09:04:09.106Z,100.90
2018-11-07T09:09:11.573Z,84.60
2018-11-07T09:14:13.719Z,107.17
2018-11-07T09:19:15.818Z,98.23
2018-11-07T09:24:18.029Z,103.37
2018-11-07T09:29:20.463Z,105.10
2018-11-07T09:34:22.536Z,88.17
2018-11-07T09:39:24.723Z,87.13
2018-11-07T09:44:26.881Z,71.10
2018-11-07T09:49:29.030Z,81.20
2018-11-07T09:54:31.537Z,83.93
2018-11-07T09:59:33.790Z,75.47
2018-11-07T10:04:35.865Z,83.33
2018-11-07T10:09:38.008Z,89.50
2018-11-07T10:14:40.125Z,77.57
2018-11-07T10:19:42.463Z,82.00
2018-11-07T10:24:44.635Z,76.40
2018-11-07T10:29:47.175Z,68.83
2018-11-07T10:34:48.975Z,85.63
2018-11-07T10:39:51.246Z,78.33
2018-11-07T10:44:53.279Z,70.17
2018-11-07T10:49:55.462Z,67.10
2018-11-07T10:54:57.585Z,63.57
2018-11-07T10:59:59.758Z,75.17
2018-11-07T11:05:01.946Z,65.20
2018-11-07T11:10:04.277Z,61.50
2018-11-07T11:15:06.431Z,65.50
2018-11-07T11:20:10.593Z,58.13
2018-11-07T11:25:12.699Z,51.73
2018-11-07T11:30:14.847Z,48.33
2018-11-07T18:38:57.178Z,24.13
2018-11-07T18:43:59.443Z,25.63
2018-11-07T18:49:01.616Z,26.37
2018-11-07T18:54:04.715Z,27.00
2018-11-07T18:59:06.910Z,36.60
2018-11-07T19:04:09.220Z,32.10
2018-11-07T19:09:11.720Z,35.43
2018-11-07T19:14:14.210Z,34.57
2018-11-07T19:19:17.692Z,41.50
2018-11-07T19:24:20.254Z,40.77
2018-11-07T19:29:22.719Z,35.23
2018-11-07T19:34:25.627Z,41.00
2018-11-07T19:39:28.544Z,38.27
2018-11-07T19:44:34.337Z,38.13
2018-11-07T19:49:38.065Z,33.27
2018-11-07T19:54:40.631Z,40.77
2018-11-07T19:59:44.253Z,39.43
2018-11-07T20:04:49.231Z,35.90
2018-11-07T20:09:53.530Z,32.70
2018-11-07T20:14:59.739Z,35.10
2018-11-07T20:20:05.728Z,35.10
2018-11-07T20:25:11.963Z,40.37
2018-11-07T20:30:19.056Z,36.57
2018-11-07T20:35:22.964Z,35.87
2018-11-07T20:40:27.684Z,37.40
2018-11-07T20:45:31.359Z,42.53
2018-11-07T20:50:35.228Z,32.53
2018-11-07T20:55:38.426Z,34.03
2018-11-07T21:00:42.557Z,37.43
2018-11-07T21:05:45.160Z,30.67
2018-11-07T21:10:48.505Z,30.27
2018-11-07T21:15:51.219Z,36.40
2018-11-07T21:20:53.747Z,35.10
2018-11-07T21:25:56.096Z,35.00
2018-11-07T21:30:58.599Z,34.57
2018-11-07T21:36:00.789Z,35.50
2018-11-07T21:41:02.990Z,33.47
2018-11-07T21:46:05.235Z,35.47
2018-11-07T21:51:07.381Z,28.87
2018-11-07T21:56:09.513Z,30.30
2018-11-07T22:01:11.659Z,29.17
2018-11-07T22:06:13.810Z,34.13
2018-11-07T22:11:16.012Z,28.20
2018-11-07T22:16:18.157Z,33.93
2018-11-07T22:21:20.282Z,33.70
2018-11-07T22:26:22.429Z,30.00
2018-11-07T22:31:24.744Z,30.53
2018-11-07T22:36:26.855Z,28.97
2018-11-07T22:41:28.980Z,26.30
2018-11-07T22:46:31.159Z,29.67
2018-11-07T22:51:33.268Z,27.00
2018-11-07T22:56:35.391Z,31.00
2018-11-07T23:01:38.422Z,25.88
2018-11-07T23:06:40.572Z,28.97
2018-11-07T23:11:43.857Z,21.53
2018-11-07T23:16:46.014Z,20.87
2018-11-07T23:21:48.168Z,26.87
2018-11-07T23:26:50.326Z,24.17
2018-11-07T23:31:52.466Z,22.27
2018-11-07T23:36:54.578Z,30.23
2018-11-07T23:41:56.671Z,22.17
2018-11-07T23:46:58.808Z,22.57
2018-11-07T23:52:00.951Z,28.07
2018-11-07T23:57:03.083Z,21.80
